createdAt,value
2023-04-12T00:01:55.312Z,100.00
2023-04-12T00:04:28.724Z,100.00
2023-04-12T00:07:01.192Z,100.00
2023-04-12T00:09:30.701Z,100.00
2023-04-12T00:11:58.886Z,100.00
2023-04-12T00:14:27.064Z,100.00
2023-04-12T00:16:55.218Z,100.00
2023-04-12T00:19:25.896Z,100.00
2023-04-12T00:21:53.960Z,100.00
2023-04-12T00:24:23.478Z,100.00
2023-04-12T00:26:51.498Z,100.00
2023-04-12T00:29:20.005Z,100.00
2023-04-12T00:31:49.061Z,100.00
2023-04-12T00:34:17.332Z,100.00
2023-04-12T00:36:45.387Z,100.00
2023-04-12T00:39:13.506Z,100.00
2023-04-12T00:41:42.945Z,100.00
2023-04-12T00:44:11.677Z,100.00
2023-04-12T00:46:39.817Z,100.00
2023-04-12T00:49:08.211Z,100.00
2023-04-12T00:51:37.988Z,100.00
2023-04-12T00:54:07.223Z,100.00
2023-04-12T00:56:35.297Z,100.00
2023-04-12T00:59:05.410Z,100.00
2023-04-12T01:01:33.511Z,100.00
2023-04-12T01:04:04.852Z,100.00
2023-04-12T01:06:46.597Z,100.00
2023-04-12T01:09:23.076Z,100.00
2023-04-12T01:11:57.718Z,100.00
2023-04-12T01:14:31.066Z,100.00
2023-04-12T01:17:02.655Z,100.00
2023-04-12T01:19:38.474Z,100.00
2023-04-12T01:22:13.771Z,100.00
2023-04-12T01:24:52.966Z,100.00
2023-04-12T01:27:31.018Z,100.00
2023-04-12T01:29:59.087Z,100.00
2023-04-12T01:32:28.200Z,100.00
2023-04-12T01:34:56.351Z,100.00
2023-04-12T01:37:24.452Z,100.00
2023-04-12T01:39:52.799Z,100.00
2023-04-12T01:42:20.981Z,100.00
2023-04-12T01:44:51.273Z,100.00
2023-04-12T01:47:19.388Z,100.00
2023-04-12T01:49:50.395Z,100.00
2023-04-12T01:52:20.773Z,100.00
2023-04-12T01:54:50.703Z,100.00
2023-04-12T01:57:18.871Z,100.00
2023-04-12T01:59:48.890Z,100.00
2023-04-12T02:02:18.795Z,100.00
2023-04-12T02:04:46.967Z,100.00
2023-04-12T02:07:15.766Z,100.00
2023-04-12T02:09:43.853Z,100.00
2023-04-12T02:12:12.770Z,100.00
2023-04-12T02:14:40.919Z,100.00
2023-04-12T02:17:09.651Z,100.00
2023-04-12T02:19:40.517Z,100.00
2023-04-12T02:22:08.948Z,100.00
2023-04-12T02:24:37.088Z,100.00
2023-04-12T02:27:06.087Z,100.00
2023-04-12T02:29:35.313Z,100.00
2023-04-12T02:32:04.735Z,100.00
2023-04-12T02:34:36.669Z,100.00
2023-04-12T02:37:18.203Z,100.00
2023-04-12T02:39:46.338Z,100.00
2023-04-12T02:42:14.791Z,100.00
2023-04-12T02:44:47.832Z,100.00
2023-04-12T02:47:16.737Z,100.00
2023-04-12T02:49:48.456Z,100.00
2023-04-12T02:52:20.549Z,100.00
2023-04-12T02:55:08.161Z,100.00
2023-04-12T02:57:36.364Z,100.00
2023-04-12T03:00:11.827Z,100.00
2023-04-12T03:02:44.107Z,100.00
2023-04-12T03:05:19.597Z,100.00
2023-04-12T03:07:49.251Z,100.00
2023-04-12T03:10:21.409Z,100.00
2023-04-12T03:12:56.632Z,100.00
2023-04-12T03:15:33.386Z,100.00
2023-04-12T03:18:02.492Z,100.00
2023-04-12T03:20:35.159Z,100.00
2023-04-12T03:23:08.684Z,100.00
2023-04-12T03:25:40.982Z,100.00
2023-04-12T03:28:32.129Z,100.00
2023-04-12T03:31:01.827Z,100.00
2023-04-12T03:33:39.853Z,100.00
2023-04-12T03:36:12.844Z,100.00
2023-04-12T03:38:42.324Z,100.00
2023-04-12T03:41:12.617Z,100.00
2023-04-12T03:43:42.619Z,100.00
2023-04-12T03:46:18.433Z,100.00
2023-04-12T03:48:53.674Z,100.00
2023-04-12T03:51:26.839Z,100.00
2023-04-12T03:54:04.489Z,100.00
2023-04-12T03:56:43.199Z,100.00
2023-04-12T03:59:20.662Z,100.00
2023-04-12T04:01:51.077Z,100.00
2023-04-12T04:04:20.499Z,100.00
2023-04-12T04:06:50.648Z,100.00
2023-04-12T04:09:20.933Z,100.00
2023-04-12T04:11:50.084Z,100.00
2023-04-12T04:14:19.540Z,100.00
2023-04-12T04:16:47.714Z,100.00
2023-04-12T04:19:17.537Z,100.00
2023-04-12T04:21:48.046Z,100.00
2023-04-12T04:24:18.815Z,100.00
2023-04-12T04:26:54.392Z,100.00
2023-04-12T04:29:27.810Z,100.00
2023-04-12T04:31:57.557Z,100.00
2023-04-12T04:34:26.565Z,100.00
2023-04-12T04:37:02.938Z,100.00
2023-04-12T04:39:31.046Z,100.00
2023-04-12T04:42:02.671Z,100.00
2023-04-12T04:44:38.022Z,100.00
2023-04-12T04:47:08.836Z,100.00
2023-04-12T04:49:37.395Z,100.00
2023-04-12T04:52:13.295Z,100.00
2023-04-12T04:54:41.644Z,100.00
2023-04-12T04:57:11.780Z,100.00
2023-04-12T04:59:41.574Z,100.00
2023-04-12T05:02:16.497Z,100.00
2023-04-12T05:04:46.498Z,100.00
2023-04-12T05:07:18.183Z,100.00
2023-04-12T05:09:48.392Z,100.00
2023-04-12T05:12:35.162Z,100.00
2023-04-12T05:17:35.891Z,100.00
2023-04-12T05:20:08.004Z,100.00
2023-04-12T05:22:36.866Z,100.00
2023-04-12T05:25:05.449Z,100.00
2023-04-12T05:27:40.122Z,100.00
2023-04-12T05:30:21.195Z,100.00
2023-04-12T05:32:50.455Z,100.00
2023-04-12T05:35:19.965Z,100.00
2023-04-12T05:37:49.999Z,100.00
2023-04-12T05:40:18.160Z,100.00
2023-04-12T05:42:51.152Z,100.00
2023-04-12T05:45:19.512Z,100.00
2023-04-12T05:47:47.951Z,100.00
2023-04-12T05:50:16.253Z,100.00
2023-04-12T05:52:45.089Z,100.00
2023-04-12T05:55:13.685Z,100.00
2023-04-12T05:57:43.059Z,100.00
2023-04-12T06:00:17.068Z,100.00
2023-04-12T06:02:47.680Z,100.00
2023-04-12T06:05:17.876Z,100.00
2023-04-12T06:07:47.052Z,100.00
2023-04-12T06:10:15.892Z,100.00
2023-04-12T06:12:44.527Z,100.00
2023-04-12T06:15:14.619Z,100.00
2023-04-12T06:17:43.709Z,100.00
2023-04-12T06:20:13.018Z,100.00
2023-04-12T06:22:41.180Z,100.00
2023-04-12T06:25:09.928Z,100.00
2023-04-12T06:27:38.495Z,100.00
2023-04-12T06:30:07.883Z,100.00
2023-04-12T06:32:39.188Z,100.00
2023-04-12T06:35:08.415Z,100.00
2023-04-12T06:37:36.627Z,100.00
2023-04-12T06:40:05.732Z,99.61
2023-04-12T06:42:33.777Z,98.64
2023-04-12T06:45:02.295Z,99.71
2023-04-12T06:47:30.841Z,98.90
2023-04-12T06:50:00.454Z,97.49
2023-04-12T06:52:28.540Z,97.32
2023-04-12T06:54:57.551Z,96.48
2023-04-12T06:57:25.738Z,97.00
2023-04-12T06:59:53.815Z,94.70
2023-04-12T07:02:22.118Z,95.79
2023-04-12T07:04:53.314Z,96.05
2023-04-12T07:07:23.135Z,95.62
2023-04-12T07:09:52.316Z,94.40
2023-04-12T07:12:20.469Z,91.07
2023-04-12T07:14:48.558Z,91.81
2023-04-12T07:17:16.638Z,89.48
2023-04-12T07:19:44.781Z,89.94
2023-04-12T07:22:14.164Z,91.36
2023-04-12T07:24:43.813Z,90.67
2023-04-12T07:27:11.948Z,91.58
2023-04-12T07:29:40.059Z,86.10
2023-04-12T07:32:09.334Z,84.62
2023-04-12T07:34:37.835Z,85.63
2023-04-12T07:37:06.212Z,84.01
2023-04-12T07:39:34.991Z,83.31
2023-04-12T07:42:04.542Z,84.24
2023-04-12T07:44:35.604Z,83.13
2023-04-12T07:47:05.697Z,85.46
2023-04-12T07:49:33.930Z,82.97
2023-04-12T07:52:02.056Z,83.65
2023-04-12T07:54:30.168Z,83.78
2023-04-12T07:57:02.471Z,84.75
2023-04-12T07:59:32.234Z,84.08
2023-04-12T08:02:01.219Z,83.92
2023-04-12T08:04:29.459Z,83.85
2023-04-12T08:06:57.654Z,82.29
2023-04-12T08:09:26.006Z,84.93
2023-04-12T08:11:54.145Z,85.09
2023-04-12T08:14:22.701Z,84.18
2023-04-12T08:16:52.215Z,82.04
2023-04-12T08:19:21.519Z,82.20
2023-04-12T08:21:49.573Z,81.98
2023-04-12T08:24:17.782Z,82.25
2023-04-12T08:26:46.320Z,84.41
2023-04-12T08:29:14.361Z,83.92
2023-04-12T08:31:42.444Z,82.89
2023-04-12T08:34:12.104Z,82.39
2023-04-12T08:36:40.466Z,82.47
2023-04-12T08:39:09.517Z,80.51
2023-04-12T08:41:39.181Z,81.90
2023-04-12T08:44:07.363Z,79.14
2023-04-12T08:46:37.060Z,79.18
2023-04-12T08:49:05.244Z,80.15
2023-04-12T08:51:34.844Z,78.78
2023-04-12T08:54:03.446Z,78.25
2023-04-12T08:56:31.582Z,79.80
2023-04-12T08:58:59.679Z,76.85
2023-04-12T09:01:27.868Z,77.55
2023-04-12T09:03:56.204Z,76.63
2023-04-12T09:06:24.350Z,76.14
2023-04-12T09:08:55.008Z,76.47
2023-04-12T09:11:24.454Z,73.89
2023-04-12T09:13:52.738Z,74.75
2023-04-12T09:16:35.565Z,75.36
2023-04-12T09:19:03.743Z,75.34
2023-04-12T09:21:33.008Z,75.00
2023-04-12T09:24:11.810Z,74.14
2023-04-12T09:26:42.373Z,76.62
2023-04-12T09:29:23.150Z,75.73
2023-04-12T09:31:57.089Z,75.12
2023-04-12T09:34:26.633Z,75.00
2023-04-12T09:36:57.331Z,75.87
2023-04-12T09:39:34.238Z,77.72
2023-04-12T09:42:12.389Z,77.79
2023-04-12T09:44:46.639Z,75.93
2023-04-12T09:47:14.899Z,75.31
2023-04-12T09:49:43.783Z,74.88
2023-04-12T09:52:12.752Z,75.04
2023-04-12T09:54:44.005Z,73.56
2023-04-12T09:57:12.545Z,75.72
2023-04-12T09:59:41.330Z,74.74
2023-04-12T10:02:12.865Z,74.55
2023-04-12T10:04:42.146Z,74.33
2023-04-12T10:07:10.766Z,75.11
2023-04-12T10:09:40.571Z,76.47
2023-04-12T10:12:11.244Z,75.21
2023-04-12T10:14:39.405Z,74.55
2023-04-12T10:17:07.868Z,73.99
2023-04-12T10:19:36.021Z,75.23
2023-04-12T10:22:04.070Z,74.12
2023-04-12T10:24:32.348Z,72.34
2023-04-12T10:27:03.405Z,75.23
2023-04-12T10:29:34.602Z,76.07
2023-04-12T10:32:20.877Z,76.68
2023-04-12T10:34:51.874Z,73.76
2023-04-12T10:37:20.049Z,76.27
2023-04-12T10:39:53.409Z,76.30
2023-04-12T10:42:28.060Z,77.07
2023-04-12T10:45:37.671Z,75.71
2023-04-12T10:48:06.759Z,75.65
2023-04-12T10:50:35.520Z,76.94
2023-04-12T10:53:26.807Z,76.16
2023-04-12T10:55:55.177Z,78.20
2023-04-12T10:58:56.287Z,78.40
2023-04-12T11:01:26.857Z,79.55
2023-04-12T11:04:14.874Z,81.66
2023-04-12T11:06:59.022Z,81.62
2023-04-12T11:09:48.239Z,83.77
2023-04-12T11:12:22.665Z,86.41
2023-04-12T11:14:51.890Z,87.13
2023-04-12T11:17:28.022Z,87.98
2023-04-12T11:20:00.405Z,90.27
2023-04-12T11:22:30.037Z,91.89
2023-04-12T11:24:59.116Z,90.94
2023-04-12T11:27:28.435Z,93.77
2023-04-12T11:29:57.618Z,94.35
2023-04-12T11:32:28.130Z,96.30
2023-04-12T11:34:57.023Z,99.05
2023-04-12T11:37:27.006Z,95.39
2023-04-12T11:39:57.657Z,96.39
2023-04-12T11:42:26.241Z,97.42
2023-04-12T11:44:57.582Z,99.81
2023-04-12T11:47:30.100Z,98.64
2023-04-12T11:50:00.129Z,99.08
2023-04-12T11:52:32.093Z,100.00
2023-04-12T11:55:02.006Z,100.00
2023-04-12T11:57:31.194Z,100.00
2023-04-12T11:59:59.948Z,100.00
2023-04-12T12:02:34.412Z,100.00
2023-04-12T12:05:03.429Z,100.00
2023-04-12T12:07:31.846Z,100.00
2023-04-12T12:10:00.344Z,100.00
2023-04-12T12:12:28.604Z,100.00
2023-04-12T12:14:57.023Z,100.00
2023-04-12T12:17:25.267Z,100.00
2023-04-12T12:19:58.105Z,100.00
2023-04-12T12:22:26.668Z,100.00
2023-04-12T12:24:56.697Z,100.00
2023-04-12T12:27:25.508Z,100.00
2023-04-12T12:29:55.752Z,100.00
2023-04-12T12:32:24.372Z,100.00
2023-04-12T12:34:55.202Z,100.00
2023-04-12T12:37:25.034Z,100.00
2023-04-12T12:40:13.744Z,99.15
2023-04-12T12:42:46.609Z,99.22
2023-04-12T12:45:14.798Z,99.11
2023-04-12T12:47:50.832Z,100.00
2023-04-12T12:50:22.045Z,100.00
2023-04-12T12:52:52.291Z,100.00
2023-04-12T12:55:21.289Z,100.00
2023-04-12T12:58:06.135Z,99.95
2023-04-12T13:00:36.514Z,100.00
2023-04-12T13:03:05.484Z,99.35
2023-04-12T13:05:35.446Z,96.39
2023-04-12T13:08:03.502Z,95.79
2023-04-12T13:10:31.578Z,94.58
2023-04-12T13:13:01.736Z,96.58
2023-04-12T13:15:29.861Z,96.05
2023-04-12T13:17:58.449Z,96.36
2023-04-12T13:20:27.370Z,97.33
2023-04-12T13:22:56.914Z,97.85
2023-04-12T13:25:24.974Z,97.17
2023-04-12T13:27:53.339Z,97.34
2023-04-12T13:30:21.908Z,99.51
2023-04-12T13:32:50.138Z,94.83
2023-04-12T13:35:18.485Z,93.32
2023-04-12T13:37:46.534Z,93.27
2023-04-12T13:40:16.072Z,92.43
2023-04-12T13:42:44.306Z,92.78
2023-04-12T13:45:13.111Z,92.92
2023-04-12T13:47:41.394Z,90.57
2023-04-12T13:50:10.391Z,93.62
2023-04-12T13:52:38.510Z,88.85
2023-04-12T13:55:08.562Z,89.60
2023-04-12T13:57:38.226Z,89.63
2023-04-12T14:00:07.929Z,91.31
2023-04-12T14:02:36.156Z,89.62
2023-04-12T14:05:04.447Z,92.89
2023-04-12T14:07:32.573Z,89.50
2023-04-12T14:10:00.611Z,92.15
2023-04-12T14:12:29.091Z,93.08
2023-04-12T14:14:58.553Z,93.70
2023-04-12T14:17:32.344Z,93.55
2023-04-12T14:20:00.870Z,93.40
2023-04-12T14:22:29.145Z,94.08
2023-04-12T14:24:57.254Z,94.76
2023-04-12T14:27:25.688Z,92.86
2023-04-12T14:29:53.805Z,94.03
2023-04-12T14:32:23.278Z,94.09
2023-04-12T14:34:51.720Z,95.28
2023-04-12T14:37:19.869Z,96.59
2023-04-12T14:39:48.251Z,96.99
2023-04-12T14:42:16.292Z,96.71
2023-04-12T14:44:44.320Z,97.19
2023-04-12T14:47:12.432Z,97.30
2023-04-12T14:49:41.990Z,97.18
2023-04-12T14:52:10.021Z,97.60
2023-04-12T14:54:38.768Z,98.80
2023-04-12T14:57:06.987Z,97.45
2023-04-12T14:59:35.177Z,96.90
2023-04-12T15:02:07.667Z,97.24
2023-04-12T15:04:37.012Z,98.29
2023-04-12T15:07:07.028Z,97.30
2023-04-12T15:09:35.144Z,97.96
2023-04-12T15:12:03.240Z,97.38
2023-04-12T15:14:31.512Z,98.93
2023-04-12T15:16:59.563Z,97.85
2023-04-12T15:19:27.662Z,99.37
2023-04-12T15:21:56.539Z,99.01
2023-04-12T15:24:26.233Z,99.44
2023-04-12T15:26:54.461Z,99.33
2023-04-12T15:29:24.350Z,99.54
2023-04-12T15:31:52.869Z,99.98
2023-04-12T15:34:23.486Z,100.00
2023-04-12T15:36:52.023Z,98.18
2023-04-12T15:39:20.245Z,97.45
2023-04-12T15:41:49.748Z,98.36
2023-04-12T15:44:17.904Z,98.58
2023-04-12T15:46:53.340Z,99.97
2023-04-12T15:49:27.559Z,99.87
2023-04-12T15:51:56.769Z,99.47
2023-04-12T15:54:24.855Z,99.31
2023-04-12T15:56:54.985Z,99.35
2023-04-12T15:59:23.065Z,99.33
2023-04-12T16:01:52.346Z,99.42
2023-04-12T16:04:20.734Z,99.54
2023-04-12T16:06:48.988Z,99.87
2023-04-12T16:09:17.060Z,99.77
2023-04-12T16:11:46.602Z,100.00
2023-04-12T16:14:16.571Z,100.00
2023-04-12T16:16:44.962Z,100.00
2023-04-12T16:19:13.327Z,100.00
2023-04-12T16:21:44.341Z,100.00
2023-04-12T16:24:13.382Z,100.00
2023-04-12T16:26:42.022Z,100.00
2023-04-12T16:29:10.823Z,100.00
2023-04-12T16:31:40.359Z,100.00
2023-04-12T16:34:09.600Z,100.00
2023-04-12T16:36:38.615Z,100.00
2023-04-12T16:39:06.989Z,100.00
2023-04-12T16:41:35.402Z,100.00
2023-04-12T16:44:04.212Z,100.00
2023-04-12T16:46:32.378Z,100.00
2023-04-12T16:49:03.798Z,100.00
2023-04-12T16:51:36.740Z,100.00
2023-04-12T16:54:05.636Z,100.00
2023-04-12T16:56:34.196Z,100.00
2023-04-12T16:59:02.298Z,100.00
2023-04-12T17:01:30.359Z,100.00
2023-04-12T17:04:00.340Z,100.00
2023-04-12T17:06:30.381Z,100.00
2023-04-12T17:08:59.410Z,100.00
2023-04-12T17:11:29.319Z,100.00
2023-04-12T17:13:57.817Z,100.00
2023-04-12T17:16:26.176Z,100.00
2023-04-12T17:18:54.261Z,100.00
2023-04-12T17:21:22.784Z,100.00
2023-04-12T17:23:53.534Z,100.00
2023-04-12T17:26:25.088Z,100.00
2023-04-12T17:28:53.218Z,100.00
2023-04-12T17:31:22.617Z,100.00
2023-04-12T17:33:51.117Z,100.00
2023-04-12T17:36:19.206Z,100.00
2023-04-12T17:38:47.364Z,100.00
2023-04-12T17:41:16.854Z,100.00
2023-04-12T17:43:47.188Z,100.00
2023-04-12T17:46:15.293Z,100.00
2023-04-12T17:48:43.800Z,100.00
2023-04-12T17:51:11.860Z,100.00
2023-04-12T17:53:39.938Z,100.00
2023-04-12T17:56:08.314Z,100.00
2023-04-12T17:58:37.774Z,100.00
2023-04-12T18:01:06.669Z,100.00
2023-04-12T18:03:36.370Z,100.00
2023-04-12T18:06:04.826Z,100.00
2023-04-12T18:08:32.989Z,100.00
2023-04-12T18:11:01.034Z,100.00
2023-04-12T18:13:29.354Z,100.00
2023-04-12T18:15:59.363Z,100.00
2023-04-12T18:18:27.608Z,100.00
2023-04-12T18:20:55.794Z,100.00
2023-04-12T18:23:23.945Z,100.00
2023-04-12T18:25:52.087Z,100.00
2023-04-12T18:28:20.759Z,100.00
2023-04-12T18:30:49.454Z,100.00
2023-04-12T18:33:18.926Z,100.00
2023-04-12T18:35:46.982Z,100.00
2023-04-12T18:38:15.051Z,100.00
2023-04-12T18:40:43.539Z,100.00
2023-04-12T18:43:11.714Z,100.00
2023-04-12T18:45:41.038Z,100.00
2023-04-12T18:48:09.887Z,100.00
2023-04-12T18:50:39.829Z,100.00
2023-04-12T18:53:07.993Z,100.00
2023-04-12T18:55:36.422Z,100.00
2023-04-12T18:58:04.594Z,100.00
2023-04-12T19:00:33.109Z,100.00
2023-04-12T19:03:01.381Z,100.00
2023-04-12T19:05:30.357Z,100.00
2023-04-12T19:08:01.549Z,100.00
2023-04-12T19:10:30.893Z,100.00
2023-04-12T19:12:58.990Z,100.00
2023-04-12T19:15:27.198Z,100.00
2023-04-12T19:17:55.357Z,100.00
2023-04-12T19:20:23.470Z,100.00
2023-04-12T19:22:52.095Z,100.00
2023-04-12T19:25:21.912Z,100.00
2023-04-12T19:27:50.001Z,100.00
2023-04-12T19:30:18.478Z,100.00
2023-04-12T19:32:46.664Z,100.00
2023-04-12T19:35:15.247Z,100.00
2023-04-12T19:37:43.599Z,100.00
2023-04-12T19:40:12.533Z,100.00
2023-04-12T19:42:42.409Z,100.00
2023-04-12T19:45:10.845Z,100.00
2023-04-12T19:47:45.085Z,100.00
2023-04-12T19:50:15.034Z,100.00
2023-04-12T19:52:43.629Z,100.00
2023-04-12T19:55:11.946Z,100.00
2023-04-12T19:57:41.770Z,100.00
2023-04-12T20:00:12.891Z,100.00
2023-04-12T20:02:41.515Z,100.00
2023-04-12T20:05:10.670Z,100.00
2023-04-12T20:07:38.960Z,100.00
2023-04-12T20:10:10.338Z,100.00
2023-04-12T20:12:38.971Z,100.00
2023-04-12T20:15:11.130Z,100.00
2023-04-12T20:17:41.301Z,100.00
2023-04-12T20:20:11.057Z,100.00
2023-04-12T20:22:40.033Z,100.00
2023-04-12T20:25:09.603Z,100.00
2023-04-12T20:27:38.664Z,100.00
2023-04-12T20:30:11.336Z,100.00
2023-04-12T20:32:39.594Z,100.00
2023-04-12T20:35:09.014Z,100.00
2023-04-12T20:37:37.656Z,100.00
2023-04-12T20:40:07.367Z,100.00
2023-04-12T20:42:35.570Z,100.00
2023-04-12T20:45:04.314Z,100.00
2023-04-12T20:47:34.770Z,100.00
2023-04-12T20:50:02.933Z,100.00
2023-04-12T20:52:31.350Z,100.00
2023-04-12T20:54:59.475Z,100.00
2023-04-12T20:57:28.252Z,100.00
2023-04-12T20:59:56.837Z,100.00
2023-04-12T21:02:25.257Z,100.00
2023-04-12T21:04:55.891Z,100.00
2023-04-12T21:07:26.200Z,100.00
2023-04-12T21:09:54.346Z,100.00
2023-04-12T21:12:22.382Z,100.00
2023-04-12T21:14:51.516Z,100.00
2023-04-12T21:17:22.527Z,100.00
2023-04-12T21:19:51.226Z,100.00
2023-04-12T21:22:21.083Z,100.00
2023-04-12T21:24:49.172Z,100.00
2023-04-12T21:27:17.619Z,100.00
2023-04-12T21:29:47.255Z,100.00
2023-04-12T21:32:15.332Z,100.00
2023-04-12T21:34:43.376Z,100.00
2023-04-12T21:37:12.039Z,100.00
2023-04-12T21:39:43.633Z,100.00
2023-04-12T21:42:11.858Z,100.00
2023-04-12T21:44:42.434Z,100.00
2023-04-12T21:47:10.511Z,100.00
2023-04-12T21:49:38.620Z,100.00
2023-04-12T21:52:06.701Z,100.00
2023-04-12T21:54:36.948Z,100.00
2023-04-12T21:57:06.912Z,100.00
2023-04-12T21:59:35.001Z,100.00
2023-04-12T22:02:03.223Z,100.00
2023-04-12T22:04:31.483Z,100.00
2023-04-12T22:07:02.156Z,100.00
2023-04-12T22:09:30.249Z,100.00
2023-04-12T22:12:02.024Z,100.00
2023-04-12T22:14:31.768Z,100.00
2023-04-12T22:16:59.892Z,100.00
2023-04-12T22:19:28.010Z,100.00
2023-04-12T22:21:56.524Z,100.00
2023-04-12T22:24:26.065Z,100.00
2023-04-12T22:26:57.421Z,100.00
2023-04-12T22:29:25.628Z,100.00
2023-04-12T22:31:55.625Z,100.00
2023-04-12T22:34:23.706Z,100.00
2023-04-12T22:36:52.243Z,100.00
2023-04-12T22:39:20.978Z,100.00
2023-04-12T22:41:49.953Z,100.00
2023-04-12T22:44:18.520Z,100.00
2023-04-12T22:46:48.366Z,100.00
2023-04-12T22:49:18.320Z,100.00
2023-04-12T22:51:46.490Z,100.00
2023-04-12T22:54:14.676Z,100.00
2023-04-12T22:56:45.347Z,100.00
2023-04-12T22:59:14.375Z,100.00
2023-04-12T23:01:42.495Z,100.00
2023-04-12T23:04:11.552Z,100.00
2023-04-12T23:06:41.700Z,100.00
2023-04-12T23:09:09.908Z,100.00
2023-04-12T23:11:39.739Z,100.00
2023-04-12T23:14:08.308Z,100.00
2023-04-12T23:16:39.002Z,100.00
2023-04-12T23:19:07.329Z,100.00
2023-04-12T23:21:36.316Z,100.00
2023-04-12T23:24:06.376Z,100.00
2023-04-12T23:26:36.383Z,100.00
2023-04-12T23:29:04.638Z,100.00
2023-04-12T23:31:33.177Z,100.00
2023-04-12T23:34:03.618Z,100.00
2023-04-12T23:36:31.686Z,100.00
2023-04-12T23:39:01.432Z,100.00
2023-04-12T23:41:32.082Z,100.00
2023-04-12T23:44:01.081Z,100.00
2023-04-12T23:46:29.526Z,100.00
2023-04-12T23:48:57.720Z,100.00
2023-04-12T23:51:25.767Z,100.00
2023-04-12T23:53:54.347Z,100.00
2023-04-12T23:56:22.533Z,100.00
2023-04-12T23:58:52.265Z,100.00
